Pagina principale
METAR-TAF:

METAR-TAF

Aeroporti :

Solenzara, Francia

Base di Solenzara

latitudine: 41-55N, longitudine: 009-24E, altezza: 8 m

Osservazione

Il bollettino è stato emesso 25 minuti fa, alle 11:30 UTC
Vento 6 kt da est/nord-est
Temperature 15°C
Umidità 72%
Pressione 1013 hPa
Visibilità 10 km o più
Poco nuvoloso ad un'altezza di 8200 ft

METAR: LFKS 191130Z AUTO 06006KT 9999 FEW082 15/10 Q1013

Ora: 12:55 (11:55 UTC)

Previsione

Il bollettino è stato emesso 1 ora e 55 minuti fa, alle 10:00 UTC
Previsione valida dal 19 alle 10 UTC al 20 alle 09 UTC
Vento 10 kt da est/nord-est
Visibilità 10 km o più
Poco nuvoloso ad un'altezza di 3000 ft
Evoluzione graduale
dal 19 alle 17 UTC al 19 alle 19 UTC
Vento 5 kt da ovest

TAF: LFKS 191000Z 1910/2009 06010KT 9999 FEW030 BECMG 1917/1919 28005KT

Osservazioni e previsioni meteorologiche di più di 4000 aeroporti (messaggi METAR e TAF).

Le stazioni disponibili sono rappresentate dai dischi gialli e rossi sulla carta.

Puntare il mouse per vedere il nome della stazione.

Clicca sopra per visualizzare le osservazioni e previsioni meteorologiche.

Per cambiare la mappa : fare clic sui pulsanti verdi con una croce nera per ingrandire, il pulsante verde con un trattino per diminuire, o sulla freccia verde per le mappe adiacenti.


METAR-TAF: